Time;durP1;ratioP1;P1;durP2;ratioP2;P2;SDS_P1;SDS_P2;PMS_P1;PMS_P2;Temp;Humidity;BMP_temperature;BMP_pressure;BME280_temperature;BME280_humidity;BME280_pressure;Samples;Min_cycle;Max_cycle;Signal;HPM_P1;HPM_P2
2022/05/04 00:00:08;;;;;;;2.63;2.53;;;;;;;5.30;100.00;62543.41;4942746;29;20272;-71
2022/05/04 00:02:35;;;;;;;3.22;2.92;;;;;;;5.25;100.00;62538.25;4947034;29;20564;-72
2022/05/04 00:05:02;;;;;;;4.47;3.00;;;;;;;5.27;100.00;62542.84;4958689;29;20439;-72
2022/05/04 00:07:28;;;;;;;3.70;3.30;;;;;;;5.13;100.00;62528.44;4950119;29;20272;-71
2022/05/04 00:09:57;;;;;;;3.35;3.15;;;;;;;4.94;100.00;62504.34;4928072;29;20252;-73
2022/05/04 00:12:26;;;;;;;3.53;3.25;;;;;;;4.95;100.00;62509.91;4933321;29;20237;-70
2022/05/04 00:14:53;;;;;;;4.35;2.80;;;;;;;4.91;100.00;62503.78;4956339;29;20200;-73
2022/05/04 00:17:20;;;;;;;2.83;2.50;;;;;;;4.86;100.00;62498.63;4948004;29;20222;-72
2022/05/04 00:19:47;;;;;;;3.10;2.80;;;;;;;4.86;100.00;62498.13;4947460;29;20201;-71
2022/05/04 00:22:17;;;;;;;2.60;2.40;;;;;;;4.89;100.00;62498.66;4959360;29;20227;-71
2022/05/04 00:24:44;;;;;;;3.20;3.00;;;;;;;4.92;100.00;62506.81;4966220;29;20198;-72
2022/05/04 00:27:11;;;;;;;2.38;2.20;;;;;;;5.08;100.00;62518.25;4939780;29;20266;-72
2022/05/04 00:29:39;;;;;;;7.32;2.50;;;;;;;5.05;100.00;62518.19;4946414;29;20205;-73
2022/05/04 00:32:07;;;;;;;2.72;2.63;;;;;;;5.01;100.00;62513.56;4946740;29;20233;-72
2022/05/04 00:34:34;;;;;;;2.75;2.55;;;;;;;5.04;100.00;62514.13;4947974;29;20214;-73
2022/05/04 00:37:02;;;;;;;3.13;2.92;;;;;;;5.09;100.00;62522.31;4931247;29;20277;-72
2022/05/04 00:39:29;;;;;;;2.60;2.40;;;;;;;5.11;100.00;62521.34;4963855;29;20201;-72
2022/05/04 00:42:07;;;;;;;2.10;2.00;;;;;;;5.05;100.00;62520.72;4965770;29;20263;-72
2022/05/04 00:44:34;;;;;;;2.17;2.08;;;;;;;5.05;100.00;62515.16;4946159;29;20222;-72
2022/05/04 00:47:03;;;;;;;4.35;2.17;;;;;;;5.12;100.00;62520.34;4927243;29;20266;-72
2022/05/04 00:49:30;;;;;;;2.28;2.17;;;;;;;5.15;100.00;62525.97;4947499;29;20253;-72
2022/05/04 00:51:57;;;;;;;2.58;2.38;;;;;;;5.18;100.00;62531.06;4946044;29;20530;-71
2022/05/04 00:54:28;;;;;;;1.90;1.80;;;;;;;5.18;100.00;62531.06;4933680;29;20206;-72
2022/05/04 00:56:56;;;;;;;2.88;2.20;;;;;;;5.23;100.00;62541.78;4926329;29;20230;-72
2022/05/04 00:59:22;;;;;;;6.53;1.75;;;;;;;5.23;100.00;62533.69;4927714;29;20434;-72
2022/05/04 01:01:49;;;;;;;2.40;2.22;;;;;;;5.25;100.00;62540.78;4927154;29;20229;-72
2022/05/04 01:04:18;;;;;;;2.03;1.92;;;;;;;5.19;100.00;62530.09;4940955;29;20393;-71
2022/05/04 01:06:45;;;;;;;5.07;2.22;;;;;;;5.19;100.00;62534.63;4945900;29;20228;-72
2022/05/04 01:09:12;;;;;;;4.20;2.03;;;;;;;5.16;100.00;62529.50;4953491;29;20208;-71
2022/05/04 01:11:39;;;;;;;6.38;2.00;;;;;;;5.10;100.00;62520.81;4950836;29;20408;-72
2022/05/04 01:14:09;;;;;;;2.08;1.98;;;;;;;5.08;100.00;62521.28;4945796;29;20510;-72
2022/05/04 01:16:37;;;;;;;2.25;2.15;;;;;;;5.06;100.00;62523.75;4946051;29;20229;-72
2022/05/04 01:19:05;;;;;;;1.80;1.70;;;;;;;5.06;100.00;62518.69;4947529;29;20268;-70
2022/05/04 01:21:34;;;;;;;1.90;1.80;;;;;;;5.10;100.00;62522.81;4943344;29;20241;-71
2022/05/04 01:24:03;;;;;;;1.73;1.63;;;;;;;4.97;100.00;62506.91;4951465;29;20215;-71
2022/05/04 01:26:30;;;;;;;1.58;1.58;;;;;;;4.90;100.00;62502.25;4957443;29;20233;-71
2022/05/04 01:28:57;;;;;;;1.60;1.50;;;;;;;4.76;100.00;62488.34;4960860;29;20221;-71
2022/05/04 01:31:24;;;;;;;1.88;1.77;;;;;;;4.71;100.00;62483.19;4928612;29;20226;-71
2022/05/04 01:33:51;;;;;;;1.75;1.75;;;;;;;4.66;100.00;62481.06;4927063;29;20204;-71
2022/05/04 01:36:18;;;;;;;2.28;2.17;;;;;;;4.64;100.00;62481.53;4928439;29;20282;-71
2022/05/04 01:38:45;;;;;;;2.88;2.67;;;;;;;4.68;100.00;62477.56;4934392;29;20214;-71
2022/05/04 01:43:54;;;;;;;3.58;2.28;;;;;;;4.30;100.00;62438.47;4945061;29;20225;-72
2022/05/04 01:46:22;;;;;;;2.60;2.38;;;;;;;4.23;100.00;62433.78;4946252;29;20232;-71
2022/05/04 01:48:49;;;;;;;2.50;2.40;;;;;;;4.22;100.00;62435.28;4943882;29;20273;-70
2022/05/04 01:51:16;;;;;;;3.88;2.50;;;;;;;4.27;100.00;62440.94;4946422;29;20201;-71
2022/05/04 01:53:45;;;;;;;2.92;2.72;;;;;;;4.30;100.00;62441.50;4945572;29;20228;-71
2022/05/04 01:56:13;;;;;;;3.28;2.90;;;;;;;4.32;100.00;62446.09;4945704;29;20399;-73
2022/05/04 01:58:40;;;;;;;3.42;3.17;;;;;;;4.38;100.00;62446.69;4944148;29;20201;-72
2022/05/04 02:01:07;;;;;;;2.33;2.13;;;;;;;4.33;100.00;62444.59;4945681;29;20201;-72
2022/05/04 02:03:34;;;;;;;3.22;2.15;;;;;;;4.31;100.00;62442.53;4945410;29;20233;-71
2022/05/04 02:06:02;;;;;;;2.53;2.40;;;;;;;4.27;100.00;62438.41;4939695;29;20428;-71
2022/05/04 02:08:29;;;;;;;2.20;2.10;;;;;;;4.24;100.00;62435.34;4927410;29;20249;-72
2022/05/04 02:10:56;;;;;;;2.33;2.22;;;;;;;4.32;100.00;62440.53;4950015;29;20228;-71
2022/05/04 02:13:25;;;;;;;2.38;2.10;;;;;;;4.24;100.00;62432.81;4949913;29;20239;-72
2022/05/04 02:15:52;;;;;;;3.08;2.88;;;;;;;4.20;100.00;62433.72;4946007;29;20205;-71
2022/05/04 02:18:18;;;;;;;2.95;2.75;;;;;;;4.27;100.00;62437.91;4957957;29;20275;-71
2022/05/04 02:20:45;;;;;;;2.33;2.22;;;;;;;4.23;100.00;62431.25;4968587;29;20248;-72
2022/05/04 02:23:12;;;;;;;2.65;2.45;;;;;;;4.18;100.00;62426.63;4967705;29;20303;-72
2022/05/04 02:25:39;;;;;;;4.68;2.40;;;;;;;4.22;100.00;62435.28;4948361;29;20213;-72
2022/05/04 02:28:06;;;;;;;3.10;2.83;;;;;;;4.20;100.00;62428.69;4949772;29;20260;-71
2022/05/04 02:30:34;;;;;;;2.80;2.55;;;;;;;4.24;100.00;62432.28;4963708;29;20385;-73
2022/05/04 02:33:01;;;;;;;4.50;2.50;;;;;;;4.25;100.00;62441.41;4957152;29;20289;-72
2022/05/04 02:38:11;;;;;;;2.13;2.03;;;;;;;4.17;100.00;62430.66;4919249;29;20221;-71
2022/05/04 02:40:38;;;;;;;2.60;2.00;;;;;;;4.16;100.00;62429.59;4963091;29;20353;-71
2022/05/04 02:43:07;;;;;;;3.25;2.13;;;;;;;4.17;100.00;62428.13;4958872;29;20236;-73
2022/05/04 02:45:35;;;;;;;2.35;2.25;;;;;;;4.16;100.00;62424.56;4959655;29;20522;-72
2022/05/04 02:48:02;;;;;;;4.15;2.65;;;;;;;4.20;100.00;62430.69;4949162;29;20593;-72
2022/05/04 02:50:30;;;;;;;2.42;2.30;;;;;;;4.21;100.00;62434.25;4941278;29;20208;-70
2022/05/04 02:52:57;;;;;;;2.95;2.67;;;;;;;4.19;100.00;62432.19;4957794;29;20536;-73
2022/05/04 02:55:24;;;;;;;3.17;2.28;;;;;;;4.18;100.00;62429.16;4957162;29;20208;-71
2022/05/04 02:57:50;;;;;;;2.90;2.70;;;;;;;4.25;100.00;62433.31;4948960;29;20527;-72
2022/05/04 03:00:18;;;;;;;4.63;2.92;;;;;;;4.22;100.00;62432.75;4945476;29;20213;-71
2022/05/04 03:02:47;;;;;;;49.55;29.98;;;;;;;4.30;100.00;62440.97;4951325;29;20233;-72
2022/05/04 03:05:15;;;;;;;25.73;17.35;;;;;;;4.35;100.00;62446.66;4948404;29;20197;-72
2022/05/04 03:07:43;;;;;;;5.50;3.85;;;;;;;4.31;100.00;62442.53;4948225;29;20448;-71
2022/05/04 03:10:11;;;;;;;5.03;2.65;;;;;;;4.37;100.00;62450.72;4953572;29;20200;-72
2022/05/04 03:12:38;;;;;;;7.03;2.45;;;;;;;4.28;100.00;62441.47;4967428;29;20584;-71
2022/05/04 03:15:06;;;;;;;2.60;2.50;;;;;;;4.39;100.00;62447.72;4967413;29;20201;-72
2022/05/04 03:17:33;;;;;;;2.40;2.30;;;;;;;4.40;100.00;62451.28;4929997;29;20260;-71
2022/05/04 03:20:01;;;;;;;8.20;3.08;;;;;;;4.36;100.00;62447.16;4938176;29;20210;-71
2022/05/04 03:22:29;;;;;;;49.40;31.90;;;;;;;4.38;100.00;62454.75;4928980;29;20293;-71
2022/05/04 03:24:56;;;;;;;6.60;5.40;;;;;;;4.43;100.00;62454.88;4933680;29;20389;-72
2022/05/04 03:27:23;;;;;;;8.95;6.60;;;;;;;4.49;100.00;62460.53;4948075;29;20224;-72
2022/05/04 03:29:50;;;;;;;6.32;5.82;;;;;;;4.45;100.00;62459.44;4966261;29;20407;-72
2022/05/04 03:32:17;;;;;;;4.68;4.18;;;;;;;4.51;100.00;62465.63;4967150;29;20239;-72
2022/05/04 03:34:44;;;;;;;4.13;3.83;;;;;;;4.55;100.00;62466.72;4954545;29;20202;-72
2022/05/04 03:37:14;;;;;;;2.40;2.30;;;;;;;4.61;100.00;62473.41;4950567;29;20221;-74
2022/05/04 03:39:40;;;;;;;2.47;2.33;;;;;;;4.73;100.00;62480.72;4966089;29;20201;-72
2022/05/04 03:42:08;;;;;;;2.85;2.25;;;;;;;4.85;100.00;62497.59;4966754;29;20220;-72
2022/05/04 03:44:35;;;;;;;1.98;1.88;;;;;;;4.96;100.00;62508.91;4967177;29;20236;-72
2022/05/04 03:47:02;;;;;;;3.13;1.92;;;;;;;5.06;100.00;62521.75;4935715;29;20261;-71
2022/05/04 03:49:29;;;;;;;3.35;1.85;;;;;;;5.14;100.00;62526.94;4937667;29;20264;-71
2022/05/04 03:51:56;;;;;;;6.57;2.10;;;;;;;5.19;100.00;62534.63;4947959;29;20226;-71
2022/05/04 03:54:25;;;;;;;2.17;2.08;;;;;;;5.25;100.00;62536.25;4945605;29;20245;-70
2022/05/04 03:56:51;;;;;;;2.50;1.90;;;;;;;5.24;100.00;62540.28;4966202;29;20269;-71
2022/05/04 03:59:18;;;;;;;1.83;1.70;;;;;;;5.37;100.00;62553.66;4967754;29;20209;-71
2022/05/04 04:01:46;;;;;;;2.15;2.05;;;;;;;5.54;100.00;62566.13;4968243;29;20258;-72
2022/05/04 04:04:14;;;;;;;2.90;1.75;;;;;;;5.73;100.00;62590.25;4951436;29;20198;-71
2022/05/04 04:06:41;;;;;;;3.17;2.00;;;;;;;5.86;100.00;62596.09;4930257;29;20266;-71
2022/05/04 04:09:08;;;;;;;1.65;1.60;;;;;;;5.97;100.00;62612.47;4929391;29;20208;-72
2022/05/04 04:11:37;;;;;;;2.50;1.52;;;;;;;6.14;100.00;62629.47;4952538;29;20224;-71
2022/05/04 04:14:04;;;;;;;3.40;2.28;;;;;;;6.14;100.00;62632.53;4938638;29;20248;-71
2022/05/04 04:16:31;;;;;;;3.40;3.20;;;;;;;6.21;100.00;62636.69;4928848;29;20229;-71
2022/05/04 04:18:58;;;;;;;2.70;2.50;;;;;;;6.20;100.00;62635.66;4930448;29;20209;-71
2022/05/04 04:24:09;;;;;;;3.78;3.30;;;;;;;6.35;100.00;62651.13;4946530;29;20225;-71
2022/05/04 04:26:38;;;;;;;3.50;3.20;;;;;;;6.43;100.00;62659.91;4960579;29;20232;-73
2022/05/04 04:29:05;;;;;;;3.92;3.63;;;;;;;6.59;100.00;62678.41;4949375;29;20399;-72
2022/05/04 04:31:32;;;;;;;5.10;3.25;;;;;;;6.71;100.00;62685.72;4939061;29;20312;-70
2022/05/04 04:34:01;;;;;;;3.97;3.10;;;;;;;6.85;100.00;62708.25;4946883;29;20430;-71
2022/05/04 04:36:28;;;;;;;2.63;2.53;;;;;;;6.96;100.00;62717.09;4939399;29;20277;-73
2022/05/04 04:38:55;;;;;;;3.17;2.85;;;;;;;7.11;100.00;62734.56;4948017;29;20204;-71
2022/05/04 04:41:22;;;;;;;3.25;3.08;;;;;;;7.26;100.00;62745.00;4947288;29;20244;-72
2022/05/04 04:43:50;;;;;;;5.93;3.22;;;;;;;7.33;100.00;62749.16;4948984;29;20201;-71
2022/05/04 04:46:17;;;;;;;10.60;3.38;;;;;;;7.10;100.00;62728.47;4947348;29;20515;-72
2022/05/04 04:48:44;;;;;;;8.93;3.97;;;;;;;6.99;100.00;62717.13;4956575;29;20217;-71
2022/05/04 04:51:11;;;;;;;3.67;3.47;;;;;;;6.88;100.00;62706.31;4927085;29;20205;-72
2022/05/04 04:53:39;;;;;;;4.80;4.40;;;;;;;6.88;100.00;62703.25;4927754;29;20248;-71
2022/05/04 04:56:06;;;;;;;4.65;4.22;;;;;;;6.80;100.00;62697.53;4940194;29;20197;-72
2022/05/04 04:58:33;;;;;;;5.38;4.95;;;;;;;6.60;100.00;62674.38;4951596;29;20213;-72
2022/05/04 05:01:01;;;;;;;8.60;5.28;;;;;;;6.20;100.00;62638.19;4953821;29;20244;-71
2022/05/04 05:03:29;;;;;;;11.32;5.75;;;;;;;5.87;100.00;62601.66;4966499;29;20197;-73
2022/05/04 05:05:56;;;;;;;7.47;6.13;;;;;;;5.91;100.00;62608.81;4966826;29;20197;-72
2022/05/04 05:08:23;;;;;;;7.78;5.43;;;;;;;5.96;100.00;62611.44;4938480;29;20241;-71
2022/05/04 05:10:50;;;;;;;4.63;4.32;;;;;;;6.12;100.00;62625.41;4929848;29;20209;-72
2022/05/04 05:13:16;;;;;;;7.10;4.93;;;;;;;6.19;100.00;62632.63;4947250;29;20237;-72
2022/05/04 05:18:29;;;;;;;6.47;4.95;;;;;;;6.52;100.00;62668.66;4943113;29;20233;-72
2022/05/04 05:20:56;;;;;;;5.45;4.90;;;;;;;6.96;100.00;62717.09;4948068;29;20204;-73
2022/05/04 05:23:23;;;;;;;6.18;5.60;;;;;;;7.42;100.00;62763.53;4964004;29;20405;-72
2022/05/04 05:25:50;;;;;;;10.65;6.28;;;;;;;7.87;100.00;62804.88;4946458;29;20224;-71
2022/05/04 05:28:17;;;;;;;7.05;5.85;;;;;;;8.11;100.00;62834.75;4927105;29;20222;-72
2022/05/04 05:30:44;;;;;;;6.97;6.22;;;;;;;8.07;100.00;62831.16;4927608;29;20209;-71
2022/05/04 05:33:11;;;;;;;6.45;5.90;;;;;;;7.93;100.00;62813.63;4926521;29;20241;-71
2022/05/04 05:35:39;;;;;;;11.70;5.95;;;;;;;8.02;100.00;62823.44;4931164;29;20262;-72
2022/05/04 05:38:08;;;;;;;9.75;6.43;;;;;;;8.00;100.00;62820.88;4945615;29;20336;-71
2022/05/04 05:40:35;;;;;;;13.73;6.80;;;;;;;8.08;100.00;62829.63;4945723;29;20406;-71
2022/05/04 05:43:02;;;;;;;13.40;6.47;;;;;;;8.01;100.00;62824.41;4946540;29;20470;-71
2022/05/04 05:45:29;;;;;;;8.85;6.90;;;;;;;7.91;100.00;62812.09;4929682;29;20548;-72
2022/05/04 05:47:56;;;;;;;7.32;6.63;;;;;;;8.09;100.00;62833.19;4926817;29;20444;-71
2022/05/04 05:50:23;;;;;;;8.73;6.57;;;;;;;8.08;100.00;62829.63;4927294;29;20246;-71
2022/05/04 05:52:51;;;;;;;12.38;7.60;;;;;;;8.16;100.00;62837.88;4950367;29;20444;-71
2022/05/04 05:55:18;;;;;;;11.73;6.82;;;;;;;8.48;100.00;62870.44;4927580;29;20217;-72
2022/05/04 05:57:45;;;;;;;13.85;7.13;;;;;;;8.68;100.00;62890.59;4926671;29;20301;-72
2022/05/04 06:00:13;;;;;;;7.60;6.88;;;;;;;8.43;100.00;62860.22;4935686;29;20201;-72
2022/05/04 06:02:40;;;;;;;14.88;7.75;;;;;;;8.66;100.00;62893.63;4938387;29;20464;-72
2022/05/04 06:05:08;;;;;;;14.65;6.40;;;;;;;8.70;100.00;62895.19;4927910;29;20236;-71
2022/05/04 06:07:35;;;;;;;6.55;5.85;;;;;;;8.77;100.00;62902.94;4942981;29;20267;-71
2022/05/04 06:10:04;;;;;;;8.80;7.10;;;;;;;8.99;100.00;62922.66;4946348;29;20204;-72
2022/05/04 06:12:30;;;;;;;9.48;6.07;;;;;;;9.19;100.00;62946.38;4931615;29;20394;-71
2022/05/04 06:14:57;;;;;;;7.00;5.47;;;;;;;9.10;100.00;62934.00;4932101;29;20268;-71
2022/05/04 06:17:24;;;;;;;10.02;6.00;;;;;;;9.04;100.00;62927.81;4936408;29;20240;-72
2022/05/04 06:19:51;;;;;;;6.80;6.15;;;;;;;8.87;100.00;62910.75;4961355;29;20200;-71
2022/05/04 06:22:18;;;;;;;6.68;5.95;;;;;;;8.92;100.00;62915.91;4961026;29;20231;-71
2022/05/04 06:24:47;;;;;;;11.65;6.80;;;;;;;9.08;100.00;62931.94;4962160;29;20446;-71
2022/05/04 06:27:15;;;;;;;6.95;6.35;;;;;;;9.12;100.00;62936.59;4956590;29;20217;-71
2022/05/04 06:35:11;;;;;;;8.68;6.38;;;;;;;9.17;100.00;62941.75;4943325;29;20223;-71
2022/05/04 06:37:39;;;;;;;6.60;6.00;;;;;;;9.06;100.00;62929.88;4947981;29;20265;-71
2022/05/04 06:40:07;;;;;;;6.32;5.72;;;;;;;9.00;100.00;62923.66;4952659;29;20220;-71
2022/05/04 06:42:35;;;;;;;7.53;6.72;;;;;;;9.04;100.00;62933.38;4956320;29;20225;-72
2022/05/04 06:45:03;;;;;;;10.88;6.30;;;;;;;9.12;100.00;62933.53;4954336;29;20201;-72
2022/05/04 06:47:30;;;;;;;10.13;7.25;;;;;;;9.17;100.00;62941.75;4944380;29;20221;-71
2022/05/04 06:49:57;;;;;;;12.20;6.45;;;;;;;9.21;100.00;62943.34;4942753;29;20209;-71
2022/05/04 06:52:24;;;;;;;6.95;6.35;;;;;;;9.34;100.00;62964.41;4950262;29;20228;-72
2022/05/04 06:54:51;;;;;;;10.57;7.07;;;;;;;9.46;100.00;62971.22;4964370;28;20311;-73
2022/05/04 06:57:19;;;;;;;8.73;7.25;;;;;;;9.76;100.00;63007.34;4965557;29;20220;-72
2022/05/04 06:59:47;;;;;;;11.30;7.82;;;;;;;10.12;100.00;63039.50;4967369;29;20201;-71
2022/05/04 07:02:14;;;;;;;7.70;7.00;;;;;;;10.30;99.51;63060.66;4947628;29;20265;-71
2022/05/04 07:04:41;;;;;;;8.02;7.30;;;;;;;10.31;98.66;63058.63;4961222;29;20200;-72
2022/05/04 07:07:08;;;;;;;9.05;6.85;;;;;;;10.47;97.69;63077.75;4967643;29;20251;-71
2022/05/04 07:09:35;;;;;;;11.13;7.05;;;;;;;10.68;99.89;63096.41;4948046;29;20193;-71
2022/05/04 07:12:02;;;;;;;11.85;7.13;;;;;;;10.93;98.32;63124.84;4948028;29;20221;-71
2022/05/04 07:14:29;;;;;;;9.38;7.10;;;;;;;11.12;96.52;63144.50;4947765;29;20438;-72
2022/05/04 07:16:57;;;;;;;8.00;7.05;;;;;;;10.87;92.60;63121.69;4940164;29;20416;-72
2022/05/04 07:19:24;;;;;;;9.95;7.10;;;;;;;10.75;94.88;63106.22;4948335;29;20207;-72
2022/05/04 07:21:51;;;;;;;19.85;7.40;;;;;;;11.12;93.73;63144.50;4947957;29;20300;-71
2022/05/04 07:24:18;;;;;;;9.18;7.47;;;;;;;11.27;91.83;63160.56;4948927;29;20194;-71
2022/05/04 07:26:48;;;;;;;8.48;7.63;;;;;;;11.28;91.13;63161.09;4948777;29;20307;-71
2022/05/04 07:29:15;;;;;;;11.95;9.38;;;;;;;11.20;92.21;63150.75;4948685;29;20210;-71
2022/05/04 07:31:42;;;;;;;12.45;8.00;;;;;;;11.15;94.20;63147.59;4948177;29;20448;-71
2022/05/04 07:34:10;;;;;;;13.73;8.60;;;;;;;11.47;96.93;63181.28;4940475;29;20229;-71
2022/05/04 07:36:37;;;;;;;10.05;8.25;;;;;;;11.62;94.71;63196.81;4947818;29;20222;-72
2022/05/04 07:39:04;;;;;;;12.50;8.73;;;;;;;11.48;94.47;63179.25;4949317;29;20201;-72
2022/05/04 07:44:30;;;;;;;18.25;10.55;;;;;;;11.64;92.27;63198.41;4893487;29;20199;-72
2022/05/04 07:46:57;;;;;;;13.70;10.27;;;;;;;11.90;93.38;63225.34;4890260;29;20536;-71
2022/05/04 07:49:25;;;;;;;15.15;10.93;;;;;;;12.01;93.16;63234.16;4889053;29;20448;-73
2022/05/04 07:51:52;;;;;;;15.63;10.88;;;;;;;12.18;91.69;63253.84;4889410;29;20219;-73
2022/05/04 07:54:19;;;;;;;14.13;10.73;;;;;;;12.16;90.02;63251.75;4889335;29;20291;-72
2022/05/04 07:56:46;;;;;;;14.02;10.95;;;;;;;12.29;91.30;63265.75;4936412;29;20581;-72
2022/05/04 07:59:12;;;;;;;13.40;10.82;;;;;;;12.18;88.83;63254.34;4949854;29;20505;-72
2022/05/04 08:04:25;;;;;;;15.52;10.95;;;;;;;12.00;86.87;63233.16;4929085;29;20246;-72
2022/05/04 08:06:52;;;;;;;15.30;11.13;;;;;;;12.28;90.02;63262.16;4942169;29;20221;-72
2022/05/04 08:09:19;;;;;;;17.67;10.50;;;;;;;12.57;86.65;63291.69;4948488;29;20388;-72
2022/05/04 08:11:46;;;;;;;14.63;10.82;;;;;;;12.26;85.05;63262.66;4947217;29;20228;-72
2022/05/04 08:14:13;;;;;;;17.38;10.65;;;;;;;12.52;85.99;63286.53;4947867;29;20435;-71
2022/05/04 08:16:40;;;;;;;18.98;10.20;;;;;;;12.63;84.27;63300.50;4946792;29;20528;-72
2022/05/04 08:19:08;;;;;;;15.55;10.93;;;;;;;12.77;84.52;63315.50;4945574;29;20517;-71
2022/05/04 08:21:37;;;;;;;18.10;10.63;;;;;;;13.03;81.58;63341.47;4946137;29;20228;-72
2022/05/04 08:24:06;;;;;;;11.85;9.60;;;;;;;13.01;78.12;63341.94;4947307;29;20189;-72
2022/05/04 08:26:33;;;;;;;11.88;8.65;;;;;;;13.24;77.55;63360.69;4963883;29;20265;-72
2022/05/04 08:29:00;;;;;;;14.07;8.82;;;;;;;13.18;78.65;63357.03;4965924;29;20223;-72
2022/05/04 08:31:28;;;;;;;11.13;9.50;;;;;;;13.24;77.92;63363.75;4965985;29;20225;-71
2022/05/04 08:33:55;;;;;;;13.98;8.20;;;;;;;12.96;74.89;63337.25;4965716;29;20232;-71
2022/05/04 08:36:21;;;;;;;13.80;8.68;;;;;;;13.03;78.66;63338.91;4965682;29;20529;-70
2022/05/04 08:38:50;;;;;;;9.20;7.97;;;;;;;13.32;78.05;63366.44;4955620;29;20388;-71
2022/05/04 08:41:16;;;;;;;10.95;7.85;;;;;;;13.55;76.45;63395.41;4963108;29;20204;-71
2022/05/04 08:43:45;;;;;;;9.45;7.43;;;;;;;13.73;72.43;63409.50;4945594;29;20241;-72
2022/05/04 08:46:15;;;;;;;7.25;6.57;;;;;;;13.79;72.57;63417.75;4946499;29;20449;-72
2022/05/04 08:48:45;;;;;;;12.20;7.57;;;;;;;13.91;75.40;63430.22;4946237;29;20206;-72
2022/05/04 08:51:12;;;;;;;7.18;6.57;;;;;;;14.06;73.78;63450.91;4946203;29;20205;-72
2022/05/04 08:53:42;;;;;;;8.35;5.72;;;;;;;14.20;66.88;63462.91;4945959;29;20202;-72
2022/05/04 08:56:12;;;;;;;6.68;5.40;;;;;;;14.25;61.86;63465.00;4945957;29;20201;-72
2022/05/04 08:58:39;;;;;;;8.43;5.97;;;;;;;14.26;60.09;63469.13;4946417;29;20204;-71
2022/05/04 09:01:06;;;;;;;7.35;4.85;;;;;;;14.28;58.98;63471.22;4945831;29;20197;-72
2022/05/04 09:03:33;;;;;;;8.25;5.10;;;;;;;14.58;62.99;63502.34;4945969;29;20205;-72
2022/05/04 09:06:00;;;;;;;12.15;5.75;;;;;;;14.75;57.91;63516.94;4945995;29;20212;-71
2022/05/04 09:08:27;;;;;;;4.65;3.97;;;;;;;14.83;60.57;63530.91;4946321;29;20202;-73
2022/05/04 09:10:54;;;;;;;6.50;4.07;;;;;;;14.84;57.91;63528.88;4946224;29;20392;-71
2022/05/04 09:13:22;;;;;;;3.60;2.95;;;;;;;14.95;52.57;63540.81;4946133;29;20292;-71
2022/05/04 09:15:51;;;;;;;8.20;3.50;;;;;;;15.04;53.26;63547.06;4945826;29;20229;-71
2022/05/04 09:18:19;;;;;;;5.35;3.22;;;;;;;15.18;55.54;63564.19;4944929;29;20228;-71
2022/05/04 09:20:52;;;;;;;3.25;3.05;;;;;;;15.25;54.58;63568.91;4947991;29;20195;-72
2022/05/04 09:23:21;;;;;;;5.22;2.50;;;;;;;15.33;51.79;63582.34;4945456;29;20255;-72
2022/05/04 09:25:52;;;;;;;3.20;2.53;;;;;;;15.22;53.62;63565.25;4957307;29;20230;-72
2022/05/04 09:28:20;;;;;;;2.78;2.55;;;;;;;15.44;51.65;63590.72;4957541;29;20217;-73
2022/05/04 09:30:50;;;;;;;5.22;2.25;;;;;;;15.43;50.65;63590.19;4946614;29;20204;-73
2022/05/04 09:33:21;;;;;;;2.45;2.20;;;;;;;15.46;50.43;63590.72;4945093;29;20265;-72
2022/05/04 09:35:49;;;;;;;2.28;2.08;;;;;;;15.54;51.14;63606.22;4945869;29;20443;-72
2022/05/04 09:46:42;;;;;;;3.42;2.17;;;;;;;16.08;50.91;63657.75;4926721;29;20245;-73
2022/05/04 09:49:16;;;;;;;1.90;1.80;;;;;;;16.13;49.15;63660.38;4938317;29;20211;-72
2022/05/04 09:51:48;;;;;;;2.50;2.30;;;;;;;16.20;50.12;63667.66;4954430;29;20458;-73
2022/05/04 09:54:20;;;;;;;2.70;2.50;;;;;;;16.22;49.82;63671.28;4964617;29;20231;-72
2022/05/04 09:56:49;;;;;;;2.80;1.95;;;;;;;16.13;48.13;63667.59;4964771;29;20408;-74
2022/05/04 09:59:18;;;;;;;3.83;2.50;;;;;;;15.97;51.16;63645.81;4964842;29;20207;-73
2022/05/04 10:01:47;;;;;;;3.38;3.05;;;;;;;16.06;50.26;63657.72;4948854;29;20220;-72
2022/05/04 10:04:15;;;;;;;5.53;2.90;;;;;;;16.10;50.18;63654.19;4945321;29;20348;-72
2022/05/04 10:06:43;;;;;;;2.45;2.33;;;;;;;16.03;47.14;63646.91;4945437;29;20221;-74
2022/05/04 10:09:10;;;;;;;2.55;2.40;;;;;;;16.04;49.29;63655.66;4945865;29;20259;-73
2022/05/04 10:11:38;;;;;;;2.30;2.20;;;;;;;16.09;50.07;63660.84;4945524;29;20401;-73
2022/05/04 10:14:08;;;;;;;2.55;2.35;;;;;;;16.11;48.99;63658.31;4945021;29;20248;-72
2022/05/04 10:16:42;;;;;;;2.53;2.42;;;;;;;16.29;50.40;63678.56;4945439;29;20221;-72
2022/05/04 10:19:18;;;;;;;5.68;2.95;;;;;;;16.54;49.28;63707.16;4945254;29;20238;-72
2022/05/04 10:21:48;;;;;;;3.72;2.78;;;;;;;16.23;47.86;63670.28;4945322;29;20508;-72
2022/05/04 10:24:17;;;;;;;3.47;2.35;;;;;;;16.24;48.49;63675.94;4945488;29;20204;-71
2022/05/04 10:26:45;;;;;;;2.35;2.15;;;;;;;16.20;44.95;63667.16;4950687;29;20224;-73
2022/05/04 10:32:32;;;;;;;2.13;2.03;;;;;;;16.72;45.99;63723.31;4949661;29;20551;-73
2022/05/04 10:35:15;;;;;;;2.85;2.22;;;;;;;16.71;45.59;63722.28;4949640;29;20236;-73
2022/05/04 10:38:07;;;;;;;3.38;2.30;;;;;;;16.72;46.29;63723.81;4949700;29;20283;-71
2022/05/04 10:40:36;;;;;;;2.63;2.42;;;;;;;17.03;43.81;63758.66;4906240;29;20246;-72
2022/05/04 10:43:05;;;;;;;4.15;2.05;;;;;;;17.15;44.38;63762.94;4948958;29;20521;-73
2022/05/04 10:45:33;;;;;;;2.13;1.95;;;;;;;17.18;47.04;63771.72;4949612;29;20193;-72
2022/05/04 10:48:30;;;;;;;2.63;2.40;;;;;;;17.35;45.01;63791.47;4940907;29;20410;-73
2022/05/04 10:51:10;;;;;;;2.30;2.20;;;;;;;17.52;45.90;63806.06;4951924;29;20265;-73
2022/05/04 10:53:43;;;;;;;2.80;2.58;;;;;;;17.72;44.64;63822.28;4934035;29;20193;-71
2022/05/04 10:56:12;;;;;;;1.77;1.67;;;;;;;17.55;43.23;63811.78;4947049;29;20244;-73
2022/05/04 10:58:43;;;;;;;1.98;1.88;;;;;;;18.02;43.34;63858.66;4947643;29;20385;-73
2022/05/04 11:01:13;;;;;;;2.10;2.00;;;;;;;18.61;40.81;63919.13;4948178;29;20187;-72
2022/05/04 11:03:51;;;;;;;2.40;2.30;;;;;;;18.49;42.92;63909.19;4950299;29;20209;-72
2022/05/04 11:06:28;;;;;;;2.50;2.40;;;;;;;18.71;40.75;63929.53;4953847;29;20260;-73
2022/05/04 11:08:58;;;;;;;2.10;2.00;;;;;;;19.00;40.25;63960.28;4947955;29;20223;-72
2022/05/04 11:11:25;;;;;;;3.80;3.05;;;;;;;18.86;40.86;63945.69;4947672;29;20229;-72
2022/05/04 11:13:53;;;;;;;3.15;2.42;;;;;;;18.43;41.88;63900.88;4948258;29;20579;-73
2022/05/04 11:16:22;;;;;;;2.88;2.55;;;;;;;18.05;42.25;63864.38;4949723;29;20229;-72
2022/05/04 11:18:49;;;;;;;3.83;2.58;;;;;;;17.86;43.75;63844.56;4953291;29;20469;-74
2022/05/04 11:21:17;;;;;;;1.83;1.73;;;;;;;18.05;41.97;63858.72;4956077;29;20201;-73
2022/05/04 11:23:50;;;;;;;2.05;1.90;;;;;;;17.79;43.25;63836.78;4967501;29;20226;-73
2022/05/04 11:26:22;;;;;;;2.08;1.85;;;;;;;17.76;42.25;63833.63;4954117;29;20354;-73
2022/05/04 11:28:50;;;;;;;1.73;1.73;;;;;;;17.73;43.63;63831.03;4949432;29;20259;-72
2022/05/04 11:31:18;;;;;;;3.30;1.90;;;;;;;17.69;42.90;63826.88;4949279;29;20497;-73
2022/05/04 11:33:48;;;;;;;3.08;1.75;;;;;;;17.35;42.68;63788.88;4947851;29;20265;-72
2022/05/04 11:36:19;;;;;;;5.38;2.20;;;;;;;17.29;44.31;63783.16;4947726;29;20276;-74
2022/05/04 11:38:46;;;;;;;1.90;1.80;;;;;;;17.55;45.11;63811.78;4947545;29;20207;-71
2022/05/04 11:41:15;;;;;;;2.22;2.08;;;;;;;17.95;43.37;63850.84;4946655;29;20197;-72
2022/05/04 11:43:43;;;;;;;1.95;1.80;;;;;;;18.04;41.79;63855.06;4947730;29;20201;-74
2022/05/04 11:46:11;;;;;;;1.90;1.80;;;;;;;18.06;42.87;63864.91;4947673;29;20205;-74
2022/05/04 11:48:42;;;;;;;3.50;2.08;;;;;;;18.55;42.18;63912.88;4944704;29;20197;-73
2022/05/04 11:51:10;;;;;;;2.33;2.00;;;;;;;19.26;41.68;63984.81;4930051;29;20214;-73
2022/05/04 11:53:37;;;;;;;3.10;2.20;;;;;;;19.36;40.06;64002.50;4933671;29;20427;-72
2022/05/04 11:56:06;;;;;;;1.95;1.80;;;;;;;19.68;40.18;64033.28;4947189;29;20224;-73
2022/05/04 11:58:37;;;;;;;1.90;1.80;;;;;;;19.91;38.54;64059.34;4947751;29;20209;-73
2022/05/04 12:01:07;;;;;;;4.55;2.17;;;;;;;19.89;38.15;64052.06;4947902;29;20527;-74
2022/05/04 12:03:38;;;;;;;1.98;1.88;;;;;;;18.72;39.98;63933.69;4947722;29;20264;-73
2022/05/04 12:06:09;;;;;;;1.80;1.77;;;;;;;18.80;41.21;63942.03;4958408;29;20200;-73
2022/05/04 12:08:37;;;;;;;1.98;1.88;;;;;;;19.09;39.66;63969.69;4962590;29;20415;-72